Time;durP1;ratioP1;P1;durP2;ratioP2;P2;SDS_P1;SDS_P2;PMS_P1;PMS_P2;Temp;Humidity;BMP_temperature;BMP_pressure;BME280_temperature;BME280_humidity;BME280_pressure;Samples;Min_cycle;Max_cycle;Signal;HPM_P1;HPM_P2
2022/12/10 00:01:46;;;;;;;10.48;5.70;;;20.10;99.90;;;;;;5033048;28;20049;-47
2022/12/10 00:04:12;;;;;;;10.18;6.10;;;20.10;99.90;;;;;;5033025;28;20491;-46
2022/12/10 00:06:39;;;;;;;9.25;5.53;;;20.10;99.90;;;;;;5032771;28;20080;-46
2022/12/10 00:09:08;;;;;;;9.02;5.78;;;20.10;99.90;;;;;;5032685;28;20014;-46
2022/12/10 00:11:34;;;;;;;7.68;5.68;;;20.10;99.90;;;;;;5033036;28;20037;-46
2022/12/10 00:14:00;;;;;;;8.65;5.15;;;20.10;99.90;;;;;;5032879;28;20375;-46
2022/12/10 00:16:27;;;;;;;9.93;5.50;;;20.10;99.90;;;;;;5032765;28;20418;-46
2022/12/10 00:18:54;;;;;;;8.35;5.63;;;20.10;99.90;;;;;;5032641;28;20028;-46
2022/12/10 00:21:26;;;;;;;9.13;5.75;;;20.10;99.90;;;;;;5032587;28;20033;-46
2022/12/10 00:23:52;;;;;;;9.13;5.28;;;20.10;99.90;;;;;;5032491;28;20064;-46
2022/12/10 00:26:22;;;;;;;8.90;5.95;;;20.10;99.90;;;;;;5032678;28;20028;-46
2022/12/10 00:28:48;;;;;;;7.43;4.75;;;20.10;99.90;;;;;;5032910;28;20052;-46
2022/12/10 00:31:19;;;;;;;7.45;5.25;;;20.10;99.90;;;;;;5032838;28;20022;-46
2022/12/10 00:33:46;;;;;;;7.30;5.07;;;20.10;99.90;;;;;;5032730;28;20025;-46
2022/12/10 00:36:15;;;;;;;8.05;4.82;;;20.10;99.90;;;;;;5032506;28;20025;-46
2022/12/10 00:38:41;;;;;;;9.20;5.82;;;20.00;99.90;;;;;;5032464;28;20491;-47
2022/12/10 00:41:08;;;;;;;8.83;4.67;;;20.10;99.90;;;;;;5032433;28;20030;-46
2022/12/10 00:43:34;;;;;;;8.70;5.07;;;20.10;99.90;;;;;;5032346;28;20090;-46
2022/12/10 00:46:00;;;;;;;7.25;4.97;;;20.10;99.90;;;;;;5032363;28;20047;-46
2022/12/10 00:48:26;;;;;;;8.55;5.25;;;20.10;99.90;;;;;;5032254;28;20029;-47
2022/12/10 00:51:00;;;;;;;8.13;5.20;;;20.10;99.90;;;;;;5032126;28;20339;-46
2022/12/10 00:53:28;;;;;;;9.38;5.10;;;20.10;99.90;;;;;;5032333;28;20026;-46
2022/12/10 00:55:54;;;;;;;7.75;5.13;;;20.10;99.90;;;;;;5032177;28;20101;-46
2022/12/10 00:58:20;;;;;;;10.00;5.35;;;20.00;99.90;;;;;;5031993;28;20036;-46
2022/12/10 01:00:47;;;;;;;8.13;5.22;;;20.00;99.90;;;;;;5061571;22;20470;-49
2022/12/10 01:03:12;;;;;;;7.95;4.95;;;20.00;99.90;;;;;;5051849;28;20045;-49
2022/12/10 01:05:38;;;;;;;11.38;5.78;;;20.00;99.90;;;;;;5051563;28;20136;-50
2022/12/10 01:08:04;;;;;;;8.23;5.38;;;20.00;99.90;;;;;;5051871;28;20029;-50
2022/12/10 01:10:30;;;;;;;11.32;5.40;;;20.00;99.90;;;;;;5051837;28;20025;-50
2022/12/10 01:12:56;;;;;;;8.55;5.07;;;20.00;99.90;;;;;;5051948;28;20076;-49
2022/12/10 01:15:22;;;;;;;7.57;4.68;;;20.00;99.90;;;;;;5051846;28;20025;-49
2022/12/10 01:17:47;;;;;;;7.60;5.07;;;20.00;99.90;;;;;;5051789;28;20082;-49
2022/12/10 01:20:13;;;;;;;7.03;4.43;;;20.00;99.90;;;;;;5051935;28;20108;-49
2022/12/10 01:22:39;;;;;;;7.03;4.85;;;20.00;99.90;;;;;;5054452;28;20029;-50
2022/12/10 01:25:05;;;;;;;8.55;4.82;;;20.00;99.90;;;;;;5055884;28;20044;-50
2022/12/10 01:27:31;;;;;;;9.35;4.97;;;20.00;99.90;;;;;;5055788;28;20040;-49
2022/12/10 01:29:57;;;;;;;6.35;4.78;;;20.00;99.90;;;;;;5055771;28;20033;-49
2022/12/10 01:32:23;;;;;;;7.45;4.50;;;20.00;99.90;;;;;;5037972;28;20025;-49
2022/12/10 01:34:48;;;;;;;7.32;4.80;;;20.00;99.90;;;;;;5056008;28;20017;-49
2022/12/10 01:37:14;;;;;;;8.30;4.90;;;20.00;99.90;;;;;;5037750;28;20033;-49
2022/12/10 01:39:40;;;;;;;6.63;4.38;;;20.00;99.90;;;;;;5055668;28;20100;-49
2022/12/10 01:42:06;;;;;;;6.55;4.60;;;20.00;99.90;;;;;;5055435;28;20037;-49
2022/12/10 01:44:31;;;;;;;10.85;4.55;;;20.00;99.90;;;;;;5037647;28;20526;-49
2022/12/10 01:47:02;;;;;;;7.30;4.18;;;20.00;99.90;;;;;;5055501;28;20044;-51
2022/12/10 01:49:37;;;;;;;6.25;4.43;;;20.00;99.90;;;;;;5055638;28;20471;-49
2022/12/10 01:52:06;;;;;;;7.78;4.40;;;20.00;99.90;;;;;;5055456;28;20028;-49
2022/12/10 01:54:36;;;;;;;7.22;4.43;;;20.00;99.90;;;;;;5055272;28;20075;-49
2022/12/10 01:57:11;;;;;;;7.22;4.32;;;20.00;99.90;;;;;;5055505;28;20029;-49
2022/12/10 01:59:38;;;;;;;6.78;3.97;;;19.90;99.90;;;;;;5072819;22;20042;-46
2022/12/10 02:02:22;;;;;;;5.60;4.15;;;20.00;99.90;;;;;;5057339;28;20138;-45
2022/12/10 02:05:06;;;;;;;7.00;4.45;;;20.00;99.90;;;;;;5075485;28;20032;-46
2022/12/10 02:07:51;;;;;;;6.00;4.53;;;20.00;99.90;;;;;;5075025;28;20032;-46
2022/12/10 02:10:48;;;;;;;7.60;4.40;;;19.90;99.90;;;;;;5075083;28;20032;-46
2022/12/10 02:13:41;;;;;;;7.57;4.43;;;19.90;99.90;;;;;;5053120;28;20044;-45
2022/12/10 02:16:14;;;;;;;6.30;3.88;;;19.90;99.90;;;;;;5074816;28;20658;-46
2022/12/10 02:19:09;;;;;;;6.63;4.28;;;19.90;99.90;;;;;;5074862;28;20017;-46
2022/12/10 02:21:39;;;;;;;7.30;4.47;;;19.90;99.90;;;;;;5069923;28;20402;-46
2022/12/10 02:24:11;;;;;;;7.07;4.57;;;19.90;99.90;;;;;;5074935;28;20020;-46
2022/12/10 02:26:45;;;;;;;5.88;4.05;;;19.90;99.90;;;;;;5074652;28;20060;-46
2022/12/10 02:29:22;;;;;;;6.18;4.20;;;19.90;99.90;;;;;;5056647;28;20059;-46
2022/12/10 02:31:53;;;;;;;6.00;4.25;;;19.90;99.90;;;;;;5074693;28;20030;-46
2022/12/10 02:34:21;;;;;;;5.72;3.75;;;19.90;99.90;;;;;;5074477;28;20024;-46
2022/12/10 02:36:51;;;;;;;6.45;4.32;;;19.90;99.90;;;;;;5057255;28;20021;-47
2022/12/10 02:39:22;;;;;;;5.40;3.70;;;19.90;99.90;;;;;;5074503;28;20446;-46
2022/12/10 02:41:53;;;;;;;7.13;4.20;;;19.90;99.90;;;;;;5074498;28;20067;-47
2022/12/10 02:44:21;;;;;;;7.30;3.97;;;19.90;99.90;;;;;;5074536;28;20062;-47
2022/12/10 02:46:50;;;;;;;5.25;3.72;;;19.90;99.90;;;;;;5074331;28;20025;-47
2022/12/10 02:49:17;;;;;;;6.38;3.80;;;19.90;99.90;;;;;;5074434;28;20486;-47
2022/12/10 02:51:43;;;;;;;7.97;4.70;;;19.90;99.90;;;;;;5074335;28;20024;-47
2022/12/10 02:54:33;;;;;;;5.05;3.63;;;19.90;99.90;;;;;;5074302;28;20108;-47
2022/12/10 02:57:08;;;;;;;5.97;4.07;;;19.90;99.90;;;;;;5074276;28;20017;-47
2022/12/10 02:59:48;;;;;;;5.20;3.92;;;19.90;99.90;;;;;;5087328;22;20032;-49
2022/12/10 03:02:23;;;;;;;5.60;3.67;;;19.90;99.90;;;;;;5054121;28;20025;-50
2022/12/10 03:04:55;;;;;;;5.72;3.65;;;19.90;99.90;;;;;;5036334;28;20032;-49
2022/12/10 03:07:38;;;;;;;7.18;4.22;;;19.80;99.90;;;;;;5054014;28;20487;-50
2022/12/10 03:10:17;;;;;;;5.65;3.80;;;19.90;99.90;;;;;;5054042;28;20031;-49
2022/12/10 03:12:48;;;;;;;5.45;3.25;;;19.90;99.90;;;;;;5054002;28;20467;-49
2022/12/10 03:15:16;;;;;;;5.65;3.88;;;19.90;99.90;;;;;;5053926;28;20033;-51
2022/12/10 03:17:45;;;;;;;5.68;3.50;;;19.80;99.90;;;;;;5053826;28;20017;-49
2022/12/10 03:20:13;;;;;;;5.72;3.25;;;19.80;99.90;;;;;;5053830;28;20021;-50
2022/12/10 03:22:43;;;;;;;4.68;3.28;;;19.90;99.90;;;;;;5053629;28;20037;-50
2022/12/10 03:25:10;;;;;;;5.18;3.50;;;19.90;99.90;;;;;;5053631;28;20021;-50
2022/12/10 03:27:39;;;;;;;5.30;3.78;;;19.90;99.90;;;;;;5053652;28;20108;-49
2022/12/10 03:30:05;;;;;;;5.90;3.78;;;19.90;99.90;;;;;;5053731;28;20107;-50
2022/12/10 03:32:32;;;;;;;6.50;3.90;;;19.80;99.90;;;;;;5053789;28;20056;-50
2022/12/10 03:34:59;;;;;;;6.18;3.35;;;19.90;99.90;;;;;;5053649;28;20550;-49
2022/12/10 03:37:26;;;;;;;5.13;3.28;;;19.90;99.90;;;;;;5035916;28;20025;-49
2022/12/10 03:39:53;;;;;;;4.93;3.58;;;19.90;99.90;;;;;;5053485;28;20052;-50
2022/12/10 03:42:18;;;;;;;5.10;3.65;;;19.80;99.90;;;;;;5053295;28;20060;-50
2022/12/10 03:44:44;;;;;;;5.82;3.08;;;19.80;99.90;;;;;;5052668;28;20051;-51
2022/12/10 03:47:14;;;;;;;4.80;3.13;;;19.80;99.90;;;;;;5053199;28;20070;-51
2022/12/10 03:49:41;;;;;;;4.97;3.47;;;19.80;99.90;;;;;;5053175;28;20025;-50
2022/12/10 03:52:06;;;;;;;4.60;3.38;;;19.80;99.90;;;;;;5053181;28;20108;-49
2022/12/10 03:54:32;;;;;;;4.78;3.35;;;19.80;99.90;;;;;;5035461;28;20461;-50
2022/12/10 03:56:58;;;;;;;6.53;3.13;;;19.80;99.90;;;;;;5053253;28;20100;-50
2022/12/10 03:59:24;;;;;;;5.30;3.67;;;19.80;99.90;;;;;;5070277;22;20028;-45
2022/12/10 04:01:49;;;;;;;4.40;3.28;;;19.80;99.90;;;;;;5072035;28;20040;-46
2022/12/10 04:04:15;;;;;;;4.22;2.83;;;19.80;99.90;;;;;;5072882;28;20028;-46
2022/12/10 04:06:42;;;;;;;5.93;3.33;;;19.80;99.90;;;;;;5072825;28;20032;-45
2022/12/10 04:09:12;;;;;;;4.73;2.90;;;19.80;99.90;;;;;;5072894;28;20035;-46
2022/12/10 04:11:38;;;;;;;5.53;3.42;;;19.80;99.90;;;;;;5072828;28;20257;-45
2022/12/10 04:16:48;;;;;;;5.95;3.70;;;19.80;99.90;;;;;;5072779;28;20044;-46
2022/12/10 04:19:16;;;;;;;5.43;3.58;;;19.80;99.90;;;;;;5072643;28;20024;-46
2022/12/10 04:27:27;;;;;;;6.13;4.55;;;19.80;99.90;;;;;;5072490;28;20073;-46
2022/12/10 04:29:54;;;;;;;4.88;2.75;;;19.80;99.90;;;;;;5072691;28;20378;-46
2022/12/10 04:32:21;;;;;;;5.35;3.17;;;19.80;99.90;;;;;;5072498;28;20487;-45
2022/12/10 04:34:47;;;;;;;4.60;3.22;;;19.80;99.90;;;;;;5054435;28;20025;-45
2022/12/10 04:37:14;;;;;;;5.60;3.38;;;19.80;99.90;;;;;;5072332;28;20043;-45
2022/12/10 04:39:40;;;;;;;5.07;3.00;;;19.80;99.90;;;;;;5072222;28;20024;-45
2022/12/10 04:42:06;;;;;;;4.53;3.28;;;19.80;99.90;;;;;;5054159;28;20036;-45
2022/12/10 04:44:32;;;;;;;5.57;3.15;;;19.70;99.90;;;;;;5072215;28;20032;-45
2022/12/10 04:46:58;;;;;;;4.80;3.28;;;19.80;99.90;;;;;;5072133;28;20036;-46
2022/12/10 04:49:24;;;;;;;5.90;3.10;;;19.80;99.90;;;;;;5072208;28;20027;-45
2022/12/10 04:51:52;;;;;;;3.90;2.60;;;19.80;99.90;;;;;;5072163;28;20035;-46
2022/12/10 04:54:19;;;;;;;4.53;2.97;;;19.80;99.90;;;;;;5054291;28;20111;-47
2022/12/10 04:56:45;;;;;;;4.17;2.90;;;19.80;99.90;;;;;;5053424;28;20481;-47
2022/12/10 04:59:11;;;;;;;4.60;2.97;;;19.80;99.90;;;;;;5072571;28;20056;-48
2022/12/10 05:01:37;;;;;;;4.45;2.85;;;19.80;99.90;;;;;;5072387;28;20448;-45
2022/12/10 05:04:06;;;;;;;4.82;3.20;;;19.80;99.90;;;;;;5071963;28;20028;-46
2022/12/10 05:06:33;;;;;;;4.78;3.17;;;19.80;99.90;;;;;;5072017;28;20553;-45
2022/12/10 05:09:00;;;;;;;4.88;3.38;;;19.80;99.90;;;;;;5072206;28;20036;-45
2022/12/10 05:11:28;;;;;;;6.68;3.47;;;19.80;99.90;;;;;;5071959;28;20048;-45
2022/12/10 05:13:54;;;;;;;4.72;3.03;;;19.80;99.90;;;;;;5071843;28;20020;-45
2022/12/10 05:16:22;;;;;;;4.22;3.28;;;19.80;99.90;;;;;;5071954;28;20031;-45
2022/12/10 05:18:48;;;;;;;4.05;3.03;;;19.80;99.90;;;;;;5071800;28;20020;-44
2022/12/10 05:21:16;;;;;;;4.53;3.08;;;19.80;99.90;;;;;;5071844;28;20029;-45
2022/12/10 05:23:44;;;;;;;4.13;2.92;;;19.80;99.90;;;;;;5071903;28;20101;-45
2022/12/10 05:26:21;;;;;;;4.93;3.28;;;19.80;99.90;;;;;;5071656;28;20064;-45
2022/12/10 05:28:54;;;;;;;3.70;2.50;;;19.80;99.90;;;;;;5071764;28;20056;-45
2022/12/10 05:31:20;;;;;;;4.63;2.97;;;19.80;99.90;;;;;;5071712;28;20036;-45
2022/12/10 05:33:47;;;;;;;4.97;3.10;;;19.80;99.90;;;;;;5053784;28;20029;-48
2022/12/10 05:36:15;;;;;;;4.57;2.97;;;19.80;99.90;;;;;;5071793;28;20024;-45
2022/12/10 05:38:42;;;;;;;4.35;3.00;;;19.80;99.90;;;;;;5071724;28;20043;-45
2022/12/10 05:41:26;;;;;;;4.33;3.03;;;19.70;99.90;;;;;;5071666;28;20411;-44
2022/12/10 05:43:54;;;;;;;5.35;3.20;;;19.80;99.90;;;;;;5071689;28;20078;-46
2022/12/10 05:46:22;;;;;;;3.83;2.72;;;19.80;99.90;;;;;;5071955;28;20116;-46
2022/12/10 05:48:49;;;;;;;4.70;2.90;;;19.80;99.90;;;;;;5053615;28;20428;-45
2022/12/10 05:51:19;;;;;;;5.18;2.92;;;19.80;99.90;;;;;;5053838;28;20035;-46
2022/12/10 05:53:46;;;;;;;5.38;3.03;;;19.70;99.90;;;;;;5071682;28;20025;-46
2022/12/10 05:56:15;;;;;;;3.67;2.78;;;19.80;99.90;;;;;;5071614;28;20490;-45
2022/12/10 05:58:43;;;;;;;4.30;2.83;;;19.80;99.90;;;;;;5053587;28;20055;-45
2022/12/10 06:01:30;;;;;;;4.68;3.10;;;19.80;99.90;;;;;;5071319;28;20037;-46
2022/12/10 06:03:58;;;;;;;4.45;3.13;;;19.80;99.90;;;;;;5071528;28;20064;-46
2022/12/10 06:06:25;;;;;;;;;;;19.80;99.90;;;;;;5071812;28;20029;-46
2022/12/10 06:08:51;;;;;;;3.92;2.92;;;19.70;99.90;;;;;;5074070;28;20388;-46
2022/12/10 06:11:17;;;;;;;5.18;3.17;;;19.80;99.90;;;;;;5075054;28;20040;-46
2022/12/10 06:13:43;;;;;;;4.15;3.03;;;19.70;99.90;;;;;;5057080;28;20021;-46
2022/12/10 06:16:12;;;;;;;4.03;2.40;;;19.70;99.90;;;;;;5075113;28;20013;-46
2022/12/10 06:18:38;;;;;;;4.57;2.90;;;19.70;99.90;;;;;;5074884;28;20042;-46
2022/12/10 06:21:05;;;;;;;3.60;2.60;;;19.70;99.90;;;;;;5075144;28;20023;-46
2022/12/10 06:23:31;;;;;;;4.43;2.80;;;19.80;99.90;;;;;;5074819;28;20082;-46
2022/12/10 06:25:57;;;;;;;4.57;2.95;;;19.70;99.90;;;;;;5074715;28;20125;-45
2022/12/10 06:28:23;;;;;;;5.88;2.92;;;19.70;99.90;;;;;;5074669;28;20025;-46
2022/12/10 06:30:48;;;;;;;4.10;2.40;;;19.70;99.90;;;;;;5074726;28;20026;-45
2022/12/10 06:33:14;;;;;;;6.40;2.90;;;19.70;99.90;;;;;;5074536;28;20036;-45
2022/12/10 06:35:40;;;;;;;5.00;3.05;;;19.70;99.90;;;;;;5074444;28;20020;-46
2022/12/10 06:38:05;;;;;;;3.97;2.85;;;19.70;99.90;;;;;;5074795;28;20059;-46
2022/12/10 06:40:31;;;;;;;4.28;2.83;;;19.70;99.90;;;;;;5074552;28;20052;-46
2022/12/10 06:42:57;;;;;;;3.92;2.83;;;19.70;99.90;;;;;;5074404;28;20341;-46
2022/12/10 06:45:23;;;;;;;4.72;2.90;;;19.70;99.90;;;;;;5056435;28;20067;-46
2022/12/10 06:47:48;;;;;;;4.35;3.15;;;19.70;99.90;;;;;;5074392;28;20028;-46
2022/12/10 06:50:14;;;;;;;4.30;3.00;;;19.70;99.90;;;;;;5074333;28;20385;-48
2022/12/10 06:52:40;;;;;;;7.70;2.95;;;19.70;99.90;;;;;;5074190;28;20546;-46
2022/12/10 06:55:06;;;;;;;6.00;3.08;;;19.70;99.90;;;;;;5074639;28;20082;-46
2022/12/10 06:57:32;;;;;;;4.28;2.83;;;19.70;99.90;;;;;;5056218;28;20025;-46
2022/12/10 06:59:57;;;;;;;3.88;2.65;;;19.70;99.90;;;;;;5074028;28;20123;-47
2022/12/10 07:02:23;;;;;;;6.40;3.50;;;19.70;99.90;;;;;;5074233;28;20566;-46
2022/12/10 07:04:49;;;;;;;4.93;2.85;;;19.70;99.90;;;;;;5074166;28;20052;-46
2022/12/10 07:07:14;;;;;;;5.30;2.80;;;19.70;99.90;;;;;;5073968;28;20505;-46
2022/12/10 07:09:40;;;;;;;4.70;3.15;;;19.70;99.90;;;;;;5074014;28;20025;-46
2022/12/10 07:12:06;;;;;;;4.05;2.45;;;19.70;99.90;;;;;;5074246;28;20029;-46
2022/12/10 07:14:32;;;;;;;3.78;2.60;;;19.70;99.90;;;;;;5073833;28;20029;-45
2022/12/10 07:16:57;;;;;;;3.55;2.65;;;19.70;99.90;;;;;;5073781;28;20036;-46
2022/12/10 07:19:24;;;;;;;4.13;2.63;;;19.70;99.90;;;;;;5072891;28;20478;-46
2022/12/10 07:21:51;;;;;;;6.47;2.88;;;19.70;99.90;;;;;;5073869;28;20032;-45
2022/12/10 07:24:18;;;;;;;4.13;2.72;;;19.70;99.90;;;;;;5073885;28;20104;-46
2022/12/10 07:26:45;;;;;;;4.55;2.95;;;19.70;99.90;;;;;;5073587;28;20029;-45
2022/12/10 07:29:17;;;;;;;3.92;2.58;;;19.70;99.90;;;;;;5073608;28;20032;-45
2022/12/10 07:31:43;;;;;;;6.88;3.55;;;19.70;99.90;;;;;;5073454;28;20033;-45
2022/12/10 07:34:10;;;;;;;5.20;3.00;;;19.70;99.90;;;;;;5073783;28;20074;-45
2022/12/10 07:36:35;;;;;;;7.10;3.40;;;19.70;99.90;;;;;;5073728;28;20028;-45
2022/12/10 07:39:04;;;;;;;6.07;3.50;;;19.70;99.90;;;;;;5073357;28;20029;-46
2022/12/10 07:41:30;;;;;;;5.70;3.13;;;19.70;99.90;;;;;;5073456;28;20029;-46
2022/12/10 07:43:55;;;;;;;5.90;3.25;;;19.70;99.90;;;;;;5073430;28;20028;-46
2022/12/10 07:46:25;;;;;;;4.43;2.78;;;19.70;99.90;;;;;;5073139;28;20036;-46
2022/12/10 07:48:51;;;;;;;7.47;3.65;;;19.70;99.90;;;;;;5073265;28;20532;-46
2022/12/10 07:51:18;;;;;;;4.70;3.10;;;19.70;99.90;;;;;;5073101;28;20029;-46
2022/12/10 07:53:44;;;;;;;4.40;3.28;;;19.70;99.90;;;;;;5073030;28;20104;-47
2022/12/10 07:56:10;;;;;;;4.45;3.10;;;19.80;99.90;;;;;;5055553;28;20031;-47
2022/12/10 07:58:37;;;;;;;5.18;3.55;;;19.80;99.90;;;;;;5073309;28;20028;-46
2022/12/10 08:01:07;;;;;;;6.05;3.75;;;19.80;99.90;;;;;;5072961;28;20067;-46
2022/12/10 08:03:33;;;;;;;9.57;3.13;;;19.80;99.90;;;;;;5072893;28;20035;-46
2022/12/10 08:06:14;;;;;;;4.68;3.00;;;19.80;99.90;;;;;;5072718;28;20032;-47
2022/12/10 08:08:41;;;;;;;5.50;3.40;;;19.80;99.90;;;;;;5073050;28;20029;-46
2022/12/10 08:11:07;;;;;;;5.35;3.00;;;19.80;99.90;;;;;;5072926;28;20036;-46
2022/12/10 08:13:33;;;;;;;6.90;3.83;;;19.90;99.90;;;;;;5072744;28;20032;-46
2022/12/10 08:16:10;;;;;;;6.30;3.22;;;19.80;99.90;;;;;;5072716;28;20471;-46
2022/12/10 08:18:35;;;;;;;5.25;3.17;;;19.90;99.90;;;;;;5072466;28;20077;-46
2022/12/10 08:21:11;;;;;;;4.30;2.97;;;19.90;99.90;;;;;;5072501;28;20028;-46
2022/12/10 08:23:36;;;;;;;5.85;3.25;;;19.90;99.90;;;;;;5072538;28;20020;-46
2022/12/10 08:26:04;;;;;;;5.72;3.50;;;19.80;99.90;;;;;;5072508;28;20032;-46
2022/12/10 08:28:30;;;;;;;4.60;2.80;;;19.90;99.90;;;;;;5072570;28;20017;-47
2022/12/10 08:30:55;;;;;;;4.38;3.55;;;19.90;99.90;;;;;;5072302;28;20039;-47
2022/12/10 08:33:21;;;;;;;4.90;3.35;;;19.90;99.90;;;;;;5072375;28;20025;-47
2022/12/10 08:35:47;;;;;;;4.88;2.90;;;19.90;99.90;;;;;;5072420;28;20040;-46
2022/12/10 08:38:13;;;;;;;6.07;3.33;;;19.90;99.90;;;;;;5072536;28;20020;-46
2022/12/10 08:40:40;;;;;;;4.05;2.72;;;19.90;99.90;;;;;;5054475;28;20033;-47
2022/12/10 08:43:06;;;;;;;4.65;3.13;;;19.80;99.90;;;;;;5072240;28;20355;-46
2022/12/10 08:45:32;;;;;;;5.05;3.50;;;19.90;99.90;;;;;;5072212;28;20474;-46
2022/12/10 08:47:58;;;;;;;6.18;3.47;;;19.90;99.90;;;;;;5072009;28;20072;-46
2022/12/10 08:50:24;;;;;;;4.82;3.20;;;19.90;99.90;;;;;;5072201;28;20099;-46
2022/12/10 08:52:49;;;;;;;5.65;3.35;;;19.90;99.90;;;;;;5072122;28;20378;-47
2022/12/10 08:55:15;;;;;;;4.57;3.30;;;19.90;99.90;;;;;;5054088;28;20017;-46
2022/12/10 08:57:41;;;;;;;7.28;3.28;;;20.00;99.90;;;;;;5072245;28;20020;-46
2022/12/10 09:00:07;;;;;;;5.18;3.50;;;20.00;99.90;;;;;;5071899;28;20044;-46
2022/12/10 09:02:33;;;;;;;5.43;3.22;;;20.00;99.90;;;;;;5071926;28;20027;-47
2022/12/10 09:04:58;;;;;;;5.03;3.25;;;20.00;99.90;;;;;;5072075;28;20028;-46
2022/12/10 09:07:24;;;;;;;6.40;3.03;;;20.00;99.90;;;;;;5053825;28;20070;-46
2022/12/10 09:09:50;;;;;;;4.20;2.88;;;20.00;99.90;;;;;;5072044;28;20032;-46
2022/12/10 09:12:16;;;;;;;4.15;3.00;;;20.10;99.90;;;;;;5071949;28;20480;-46
2022/12/10 09:14:41;;;;;;;5.25;3.50;;;20.10;99.90;;;;;;5054135;28;20024;-46
2022/12/10 09:17:08;;;;;;;4.15;3.08;;;20.10;99.90;;;;;;5071733;28;20023;-46
2022/12/10 09:19:34;;;;;;;5.82;3.35;;;20.20;99.90;;;;;;5071848;28;20139;-46
2022/12/10 09:21:59;;;;;;;6.10;3.92;;;20.20;99.90;;;;;;5071726;28;20019;-46
2022/12/10 09:24:25;;;;;;;6.53;3.80;;;20.20;99.90;;;;;;5071941;28;20029;-47
2022/12/10 09:26:51;;;;;;;4.85;3.63;;;20.30;99.90;;;;;;5071716;28;20033;-46
2022/12/10 09:29:17;;;;;;;4.70;3.22;;;20.30;99.90;;;;;;5071702;28;20031;-47
2022/12/10 09:31:43;;;;;;;5.13;3.70;;;20.40;99.90;;;;;;5071851;28;20028;-47
2022/12/10 09:34:08;;;;;;;4.63;3.55;;;20.40;99.90;;;;;;5071673;28;20024;-47
2022/12/10 09:36:34;;;;;;;5.47;3.53;;;20.40;99.90;;;;;;5071613;28;20028;-47
2022/12/10 09:39:00;;;;;;;7.10;3.92;;;20.50;99.90;;;;;;5053562;28;20056;-47
2022/12/10 09:41:47;;;;;;;5.00;3.58;;;20.50;99.90;;;;;;5071595;28;20029;-47
2022/12/10 09:44:32;;;;;;;7.50;3.50;;;20.50;99.90;;;;;;5075377;28;20024;-47
2022/12/10 09:47:03;;;;;;;5.75;4.00;;;20.60;99.90;;;;;;5075291;28;20034;-47
2022/12/10 09:49:32;;;;;;;6.60;3.83;;;20.60;99.90;;;;;;5057481;28;20026;-47
2022/12/10 09:52:01;;;;;;;5.32;4.15;;;20.70;99.90;;;;;;5075412;28;20028;-47
2022/12/10 09:54:27;;;;;;;6.38;3.92;;;20.70;99.90;;;;;;5075291;28;20099;-47
2022/12/10 09:56:54;;;;;;;8.25;5.03;;;20.70;99.90;;;;;;5075290;28;20457;-47
2022/12/10 09:59:39;;;;;;;5.55;4.35;;;20.70;99.90;;;;;;5074891;28;20471;-46
2022/12/10 10:02:26;;;;;;;6.53;4.40;;;20.80;99.90;;;;;;5075118;28;20044;-47
2022/12/10 10:04:54;;;;;;;;;;;20.90;99.90;;;;;;5075531;28;20081;-47
2022/12/10 10:07:26;;;;;;;8.50;3.90;;;20.90;99.90;;;;;;5074894;28;19991;-47
2022/12/10 10:10:01;;;;;;;4.88;3.45;;;21.00;99.90;;;;;;5075069;28;20105;-47
2022/12/10 10:12:29;;;;;;;5.80;4.00;;;21.00;99.90;;;;;;5057039;28;20082;-47
2022/12/10 10:14:55;;;;;;;5.63;3.45;;;21.10;99.90;;;;;;5074951;28;20029;-47
2022/12/10 10:17:35;;;;;;;5.88;4.20;;;21.10;99.90;;;;;;5074923;28;20066;-47
2022/12/10 10:20:01;;;;;;;5.75;3.67;;;21.20;99.90;;;;;;5074896;28;20043;-47
2022/12/10 10:22:27;;;;;;;5.72;3.70;;;21.20;99.90;;;;;;5057051;28;20479;-47
2022/12/10 10:24:53;;;;;;;5.65;4.00;;;21.30;99.90;;;;;;5074824;28;20028;-48
2022/12/10 10:27:28;;;;;;;7.65;3.70;;;21.30;99.90;;;;;;5056831;28;20119;-47
2022/12/10 10:29:57;;;;;;;5.22;3.80;;;21.30;99.90;;;;;;5074405;28;20024;-47
2022/12/10 10:32:26;;;;;;;6.30;3.67;;;21.40;99.90;;;;;;5074554;28;20116;-47
2022/12/10 10:34:59;;;;;;;7.15;3.72;;;21.40;99.90;;;;;;5074611;28;20020;-47
2022/12/10 10:37:29;;;;;;;6.60;3.50;;;21.40;99.90;;;;;;5074413;28;20115;-47
2022/12/10 10:39:56;;;;;;;6.53;4.13;;;21.50;99.90;;;;;;5074821;28;20347;-48
2022/12/10 10:42:44;;;;;;;5.90;4.33;;;21.50;99.90;;;;;;5074280;28;20027;-47
2022/12/10 10:45:34;;;;;;;5.85;3.95;;;21.60;99.90;;;;;;5074219;28;20048;-47
2022/12/10 10:48:13;;;;;;;5.53;3.90;;;21.60;99.90;;;;;;5074407;28;20035;-47
2022/12/10 10:50:43;;;;;;;6.05;4.28;;;21.70;99.90;;;;;;5074139;28;20039;-47
2022/12/10 10:53:44;;;;;;;8.18;3.92;;;21.70;99.90;;;;;;5073930;28;20509;-48
2022/12/10 10:56:09;;;;;;;5.57;3.88;;;21.80;99.90;;;;;;5074259;28;20082;-48
2022/12/10 10:58:44;;;;;;;6.13;3.75;;;21.80;99.90;;;;;;5074264;28;20024;-48
2022/12/10 11:01:10;;;;;;;8.60;3.92;;;21.90;99.90;;;;;;5073890;28;20374;-47
2022/12/10 11:03:45;;;;;;;5.82;4.13;;;21.90;99.90;;;;;;5074099;28;20020;-48
2022/12/10 11:06:12;;;;;;;5.50;3.95;;;22.00;99.90;;;;;;5073871;28;20632;-47
2022/12/10 11:08:39;;;;;;;5.72;3.75;;;22.00;99.90;;;;;;5074019;28;20397;-47
2022/12/10 11:11:32;;;;;;;6.90;4.20;;;22.00;99.90;;;;;;5073888;28;20028;-47
2022/12/10 11:14:24;;;;;;;5.32;4.07;;;22.10;99.90;;;;;;5073872;28;20020;-48
2022/12/10 11:16:59;;;;;;;8.80;4.55;;;22.10;99.90;;;;;;5063562;28;20445;-47
2022/12/10 11:19:26;;;;;;;7.28;4.88;;;22.10;99.90;;;;;;5055745;28;20036;-48
2022/12/10 11:21:52;;;;;;;5.78;4.15;;;22.20;99.90;;;;;;5073818;28;20044;-46
2022/12/10 11:24:19;;;;;;;5.75;4.30;;;22.20;99.90;;;;;;5073765;28;20525;-47
2022/12/10 11:27:09;;;;;;;6.72;4.53;;;22.20;99.90;;;;;;5073074;28;20482;-46
2022/12/10 11:29:56;;;;;;;6.85;4.30;;;22.30;99.90;;;;;;5073218;28;20051;-47
2022/12/10 11:32:40;;;;;;;7.03;4.63;;;22.20;99.90;;;;;;5073602;28;20066;-46
2022/12/10 11:35:24;;;;;;;7.53;4.13;;;22.30;99.90;;;;;;5073178;28;20024;-48
2022/12/10 11:37:56;;;;;;;8.35;4.50;;;22.40;99.90;;;;;;5073394;28;20101;-47
2022/12/10 11:40:39;;;;;;;6.22;4.82;;;22.40;99.90;;;;;;5055565;28;20131;-48
2022/12/10 11:43:32;;;;;;;6.30;4.13;;;22.40;99.90;;;;;;5073286;28;20021;-48
2022/12/10 11:46:18;;;;;;;6.38;4.10;;;22.50;99.90;;;;;;5073125;28;20029;-49
2022/12/10 11:48:58;;;;;;;10.50;4.88;;;22.50;99.90;;;;;;5073053;28;20028;-48
2022/12/10 11:51:51;;;;;;;7.00;4.50;;;22.60;99.90;;;;;;5073130;28;20428;-48
2022/12/10 11:54:49;;;;;;;9.68;5.07;;;22.60;99.90;;;;;;5072916;28;20521;-48
2022/12/10 11:57:30;;;;;;;7.47;4.53;;;22.60;99.90;;;;;;5072888;28;20061;-47
2022/12/10 12:00:11;;;;;;;9.98;4.45;;;22.70;99.90;;;;;;5072569;28;20131;-47
2022/12/10 12:02:55;;;;;;;11.60;3.88;;;22.70;99.90;;;;;;5072841;28;20474;-48
2022/12/10 12:05:32;;;;;;;13.23;4.65;;;22.70;99.90;;;;;;5072549;28;20394;-47
2022/12/10 12:08:23;;;;;;;13.45;5.25;;;22.80;99.90;;;;;;5072590;28;20033;-48
2022/12/10 12:11:01;;;;;;;9.30;4.82;;;22.80;99.90;;;;;;5056316;28;20024;-48
2022/12/10 12:14:01;;;;;;;11.13;4.50;;;22.90;99.90;;;;;;5072686;28;20021;-48
2022/12/10 12:16:43;;;;;;;7.47;4.57;;;22.90;99.90;;;;;;5072561;28;20024;-48
2022/12/10 12:19:18;;;;;;;8.40;4.57;;;22.90;99.90;;;;;;5072496;28;20074;-48
2022/12/10 12:21:47;;;;;;;8.13;4.20;;;23.00;99.90;;;;;;5072282;28;20479;-47
2022/12/10 12:24:35;;;;;;;12.55;4.82;;;23.00;99.90;;;;;;5072300;28;20066;-48
2022/12/10 12:27:26;;;;;;;6.57;4.35;;;23.00;99.90;;;;;;5054334;28;20033;-48
2022/12/10 12:29:55;;;;;;;8.20;4.28;;;23.10;99.90;;;;;;5072365;28;20021;-47
2022/12/10 12:32:26;;;;;;;10.85;4.40;;;23.10;99.90;;;;;;5054517;28;20033;-47
2022/12/10 12:35:16;;;;;;;9.95;4.10;;;23.10;99.90;;;;;;5072442;28;20027;-48
2022/12/10 12:37:49;;;;;;;7.82;4.55;;;23.10;99.90;;;;;;5072222;28;20074;-48
2022/12/10 12:40:39;;;;;;;7.47;4.65;;;23.20;99.90;;;;;;5072251;28;20028;-48
2022/12/10 12:43:14;;;;;;;7.85;4.50;;;23.20;99.90;;;;;;5037501;28;20063;-48
2022/12/10 12:45:53;;;;;;;7.40;4.20;;;23.20;99.90;;;;;;5054062;28;20035;-48
2022/12/10 12:48:54;;;;;;;7.35;4.10;;;23.20;99.90;;;;;;5072051;28;20394;-47
2022/12/10 12:51:34;;;;;;;6.07;3.63;;;23.20;99.90;;;;;;5072034;28;20154;-48
2022/12/10 12:54:00;;;;;;;6.40;3.95;;;23.20;99.90;;;;;;5072076;28;20034;-48
2022/12/10 12:57:03;;;;;;;7.70;3.63;;;23.20;99.90;;;;;;5072156;28;20466;-47
2022/12/10 13:00:05;;;;;;;6.93;4.00;;;23.20;99.90;;;;;;5071978;28;20072;-47
2022/12/10 13:02:39;;;;;;;5.75;4.20;;;23.20;99.90;;;;;;5071988;28;20136;-47
2022/12/10 13:05:12;;;;;;;8.75;4.90;;;23.20;99.90;;;;;;5072060;28;20023;-48
2022/12/10 13:07:37;;;;;;;8.93;4.15;;;23.20;99.90;;;;;;5071842;28;20036;-49
2022/12/10 13:10:06;;;;;;;8.23;3.97;;;23.10;99.90;;;;;;5071911;28;20017;-49
2022/12/10 13:13:03;;;;;;;9.95;4.20;;;23.10;99.90;;;;;;5071725;28;20067;-50
2022/12/10 13:15:42;;;;;;;7.55;4.35;;;23.10;99.90;;;;;;5071554;28;20427;-48